Portada
METAR-TAF:

METAR-TAF

Aeroports :

Alpnach, Suïssa

latitud: 46-56-19N, longitud: 8-17-03E, altitud: 440 m

Observació

L'informe es va fer fa 33 minuts, a les 15:50 UTC
Vent calma
Temperatura 9°C
Humitat 71%
Pressió 1020 hPa
Visibilitat 10 km o més
Escasses núvols a una alçada de 5300 ft

METAR: LSMA 071550Z AUTO 00000KT 9999NDV FEW053 09/04 Q1020 RMK

Hora: 17:23 (16:23 UTC)


TAF: manca

Observacions i pronòstics meteorològics de més de 4000 aeroports (METAR i TAF).

Les estacions disponibles són els punts grocs i vermells al mapa.

Posi el ratolí al punt desitjat per veure el nom de l'estació.

Feu clic per veure les observacions i els pronòstics meteorològics.

Per canviar el mapa: feu clic els botons verds amb una creu de color negre per apropar; al botó verd amb un guió per allunyar la imatge; o en les fletxes verdes per a mapes adjacents.


METAR-TAF: